Terminal Aerodrome Forecast
Issued by NWS Sioux Falls, SD

Home | Current Version | Previous Version | Text Only | Print | Product List | Glossary On
Versions: 1 2 3 4 5 6 7 8 9 10 11 12 13
000
FTUS43 KFSD 190500
TAFSUX
TAF
KSUX 190522Z 1906/2006 16015KT P6SM BKN250
     FM191300 17012KT P6SM SCT080 BKN250
     FM191500 19013KT P6SM BKN080
     FM200000 VRB03KT P6SM OVC060=

USA.gov is the U.S. government's official web portal to all federal, state and local government web resources and services.